createdAt,value
2019-05-15T00:00:28.830Z,0.00
2019-05-15T00:01:28.395Z,0.00
2019-05-15T00:02:27.966Z,0.00
2019-05-15T00:03:28.700Z,0.00
2019-05-15T00:04:28.095Z,0.00
2019-05-15T00:05:26.390Z,0.00
2019-05-15T00:06:28.526Z,0.00
2019-05-15T00:07:26.357Z,0.00
2019-05-15T00:08:28.653Z,0.00
2019-05-15T00:09:28.487Z,0.00
2019-05-15T00:10:28.713Z,0.00
2019-05-15T00:11:28.612Z,0.00
2019-05-15T00:12:28.446Z,0.00
2019-05-15T00:13:28.232Z,0.00
2019-05-15T00:14:28.650Z,0.00
2019-05-15T00:15:27.888Z,0.00
2019-05-15T00:16:28.839Z,0.00
2019-05-15T00:17:28.145Z,0.00
2019-05-15T00:18:28.148Z,0.00
2019-05-15T00:19:28.329Z,0.00
2019-05-15T00:20:26.207Z,0.00
2019-05-15T00:21:28.641Z,0.00
2019-05-15T00:22:26.197Z,0.00
2019-05-15T00:23:26.187Z,0.00
2019-05-15T00:24:28.616Z,0.00
2019-05-15T00:25:28.162Z,0.00
2019-05-15T00:26:26.157Z,0.00
2019-05-15T00:27:28.357Z,0.00
2019-05-15T00:28:28.018Z,0.00
2019-05-15T00:29:26.127Z,0.00
2019-05-15T00:30:26.207Z,0.00
2019-05-15T00:31:26.110Z,0.00
2019-05-15T00:32:28.158Z,0.00
2019-05-15T00:33:28.466Z,0.00
2019-05-15T00:34:28.453Z,0.00
2019-05-15T00:35:28.607Z,0.00
2019-05-15T00:36:28.495Z,0.00
2019-05-15T00:37:26.023Z,0.00
2019-05-15T00:38:27.949Z,0.00
2019-05-15T00:39:28.290Z,0.00
2019-05-15T00:40:25.992Z,0.00
2019-05-15T00:41:27.866Z,0.00
2019-05-15T00:42:25.962Z,0.00
2019-05-15T00:43:25.953Z,0.00
2019-05-15T00:44:27.913Z,0.00
2019-05-15T00:45:27.777Z,0.00
2019-05-15T00:46:26.055Z,0.00
2019-05-15T00:47:25.902Z,0.00
2019-05-15T00:48:25.911Z,0.00
2019-05-15T00:49:25.912Z,0.00
2019-05-15T00:50:25.982Z,0.00
2019-05-15T00:51:28.290Z,0.00
2019-05-15T00:52:28.141Z,0.00
2019-05-15T00:53:28.108Z,0.00
2019-05-15T00:54:28.111Z,0.00
2019-05-15T00:55:25.832Z,0.00
2019-05-15T00:56:28.292Z,0.00
2019-05-15T00:57:28.240Z,0.00
2019-05-15T00:58:28.143Z,0.00
2019-05-15T00:59:27.506Z,0.00
2019-05-15T01:00:28.099Z,0.00
2019-05-15T01:01:25.862Z,0.00
2019-05-15T01:02:25.752Z,0.00
2019-05-15T01:03:27.821Z,0.00
2019-05-15T01:04:27.954Z,0.00
2019-05-15T01:05:27.975Z,0.00
2019-05-15T01:06:25.703Z,0.00
2019-05-15T01:07:28.067Z,0.00
2019-05-15T01:08:25.692Z,0.00
2019-05-15T01:09:25.678Z,0.00
2019-05-15T01:10:25.662Z,0.00
2019-05-15T01:11:25.666Z,0.00
2019-05-15T01:12:25.762Z,0.00
2019-05-15T01:13:27.992Z,0.00
2019-05-15T01:14:27.764Z,0.00
2019-05-15T01:15:25.612Z,0.00
2019-05-15T01:16:27.939Z,0.00
2019-05-15T01:17:25.676Z,0.00
2019-05-15T01:18:25.581Z,0.00
2019-05-15T01:19:25.563Z,0.00
2019-05-15T01:20:25.552Z,0.00
2019-05-15T01:21:27.777Z,0.00
2019-05-15T01:22:25.642Z,0.00
2019-05-15T01:23:25.512Z,0.00
2019-05-15T01:24:25.522Z,0.00
2019-05-15T01:25:25.514Z,0.00
2019-05-15T01:26:25.505Z,0.00
2019-05-15T01:27:25.610Z,0.00
2019-05-15T01:28:25.472Z,0.00
2019-05-15T01:29:38.357Z,0.00
2019-05-15T01:30:28.513Z,0.00
2019-05-15T01:31:25.442Z,0.00
2019-05-15T01:32:25.553Z,0.00
2019-05-15T01:33:25.412Z,0.00
2019-05-15T01:34:25.412Z,0.00
2019-05-15T01:35:25.392Z,0.00
2019-05-15T01:36:25.386Z,0.00
2019-05-15T01:37:25.392Z,0.00
2019-05-15T01:38:25.385Z,0.00
2019-05-15T01:39:25.366Z,0.00
2019-05-15T01:40:25.342Z,0.00
2019-05-15T01:41:25.346Z,0.00
2019-05-15T01:42:25.323Z,0.00
2019-05-15T01:43:25.315Z,0.00
2019-05-15T01:44:25.402Z,0.00
2019-05-15T01:45:25.272Z,0.00
2019-05-15T01:46:25.279Z,0.00
2019-05-15T01:47:25.266Z,0.00
2019-05-15T01:48:25.382Z,0.00
2019-05-15T01:49:25.232Z,0.00
2019-05-15T01:50:25.251Z,0.00
2019-05-15T01:51:25.222Z,0.00
2019-05-15T01:52:25.212Z,0.00
2019-05-15T01:53:25.213Z,0.00
2019-05-15T01:54:25.195Z,0.00
2019-05-15T01:55:25.195Z,0.00
2019-05-15T01:56:25.193Z,0.00
2019-05-15T01:57:25.151Z,0.00
2019-05-15T01:58:25.232Z,0.00
2019-05-15T01:59:25.131Z,0.00
2019-05-15T02:00:25.130Z,0.00
2019-05-15T02:01:25.102Z,0.00
2019-05-15T02:02:25.132Z,0.00
2019-05-15T02:03:25.173Z,0.00
2019-05-15T02:04:25.112Z,0.00
2019-05-15T02:05:25.073Z,0.00
2019-05-15T02:06:25.052Z,0.00
2019-05-15T02:07:25.052Z,0.00
2019-05-15T02:08:25.041Z,0.00
2019-05-15T02:09:25.074Z,0.00
2019-05-15T02:10:25.012Z,0.00
2019-05-15T02:11:25.001Z,0.00
2019-05-15T02:12:24.991Z,0.00
2019-05-15T02:13:24.994Z,0.00
2019-05-15T02:14:24.961Z,0.00
2019-05-15T02:15:25.092Z,0.00
2019-05-15T02:16:24.941Z,0.00
2019-05-15T02:17:24.942Z,0.00
2019-05-15T02:18:24.920Z,0.00
2019-05-15T02:19:25.011Z,0.00
2019-05-15T02:20:24.911Z,0.00
2019-05-15T02:21:24.935Z,0.00
2019-05-15T02:22:24.890Z,0.00
2019-05-15T02:23:24.881Z,0.00
2019-05-15T02:24:24.871Z,0.00
2019-05-15T02:25:24.941Z,0.00
2019-05-15T02:26:24.884Z,0.00
2019-05-15T02:27:24.831Z,0.00
2019-05-15T02:28:24.829Z,0.00
2019-05-15T02:29:25.264Z,0.00
2019-05-15T02:30:30.132Z,0.00
2019-05-15T02:31:25.797Z,0.00
2019-05-15T02:32:24.772Z,0.00
2019-05-15T02:33:24.779Z,0.00
2019-05-15T02:34:24.763Z,0.00
2019-05-15T02:35:24.886Z,0.00
2019-05-15T02:36:24.741Z,0.00
2019-05-15T02:37:24.734Z,0.00
2019-05-15T02:38:24.712Z,0.00
2019-05-15T02:39:24.701Z,0.00
2019-05-15T02:40:24.683Z,0.00
2019-05-15T02:41:24.810Z,0.00
2019-05-15T02:42:24.690Z,0.00
2019-05-15T02:43:24.666Z,0.00
2019-05-15T02:44:24.651Z,0.00
2019-05-15T02:45:24.654Z,0.00
2019-05-15T02:46:24.656Z,0.00
2019-05-15T02:47:24.625Z,0.00
2019-05-15T02:48:24.761Z,0.00
2019-05-15T02:49:24.601Z,0.00
2019-05-15T02:50:24.597Z,0.00
2019-05-15T02:51:24.581Z,0.00
2019-05-15T02:52:24.571Z,0.00
2019-05-15T02:53:24.565Z,4.00
2019-05-15T02:54:24.602Z,4.00
2019-05-15T02:55:24.532Z,4.00
2019-05-15T02:56:24.521Z,4.00
2019-05-15T02:57:24.632Z,4.00
2019-05-15T02:58:24.501Z,4.00
2019-05-15T02:59:24.492Z,4.00
2019-05-15T03:00:41.132Z,8.00
2019-05-15T03:01:28.375Z,8.00
2019-05-15T03:02:24.544Z,8.00
2019-05-15T03:03:24.431Z,12.00
2019-05-15T03:04:24.443Z,12.00
2019-05-15T03:05:24.430Z,12.00
2019-05-15T03:06:24.410Z,12.00
2019-05-15T03:07:24.532Z,16.00
2019-05-15T03:08:24.392Z,20.00
2019-05-15T03:09:24.380Z,20.00
2019-05-15T03:10:24.391Z,24.00
2019-05-15T03:11:24.360Z,28.00
2019-05-15T03:12:24.331Z,36.00
2019-05-15T03:13:24.405Z,40.00
2019-05-15T03:14:24.335Z,40.00
2019-05-15T03:15:24.308Z,52.00
2019-05-15T03:16:24.313Z,56.00
2019-05-15T03:17:24.314Z,64.00
2019-05-15T03:18:24.282Z,72.00
2019-05-15T03:19:24.393Z,80.00
2019-05-15T03:20:24.250Z,88.00
2019-05-15T03:21:24.251Z,100.00
2019-05-15T03:22:24.233Z,116.00
2019-05-15T03:23:24.231Z,132.00
2019-05-15T03:24:24.322Z,144.00
2019-05-15T03:25:24.212Z,160.00
2019-05-15T03:26:24.201Z,176.00
2019-05-15T03:27:24.311Z,196.00
2019-05-15T03:28:24.174Z,216.00
2019-05-15T03:29:24.169Z,236.00
2019-05-15T03:30:24.169Z,260.00
2019-05-15T03:31:47.808Z,284.00
2019-05-15T03:32:35.860Z,308.00
2019-05-15T03:33:27.089Z,336.00
2019-05-15T03:34:30.834Z,368.00
2019-05-15T03:35:25.232Z,396.00
2019-05-15T03:36:24.736Z,428.00
2019-05-15T03:37:24.084Z,460.00
2019-05-15T03:38:24.076Z,496.00
2019-05-15T03:39:24.063Z,536.00
2019-05-15T03:40:24.157Z,568.00
2019-05-15T03:41:24.063Z,608.00
2019-05-15T03:42:24.039Z,648.00
2019-05-15T03:43:24.010Z,688.00
2019-05-15T03:44:24.010Z,728.00
2019-05-15T03:45:24.080Z,768.00
2019-05-15T03:46:23.971Z,812.00
2019-05-15T03:47:24.095Z,852.00
2019-05-15T03:48:23.962Z,900.00
2019-05-15T03:49:23.952Z,944.00
2019-05-15T03:50:23.938Z,992.00
2019-05-15T03:51:23.936Z,1032.00
2019-05-15T03:52:23.932Z,1076.00
2019-05-15T03:53:23.914Z,1128.00
2019-05-15T03:54:23.893Z,1172.00
2019-05-15T03:55:23.895Z,1220.00
2019-05-15T03:56:23.859Z,1268.00
2019-05-15T03:57:23.984Z,1316.00
2019-05-15T03:58:23.858Z,1368.00
2019-05-15T03:59:23.851Z,1416.00
2019-05-15T04:00:23.850Z,1460.00
2019-05-15T04:01:34.128Z,1512.00
2019-05-15T04:02:24.899Z,1560.00
2019-05-15T04:03:23.800Z,1604.00
2019-05-15T04:04:23.889Z,1652.00
2019-05-15T04:05:23.773Z,1696.00
2019-05-15T04:06:23.759Z,1744.00
2019-05-15T04:07:23.765Z,1792.00
2019-05-15T04:08:23.831Z,1832.00
2019-05-15T04:09:23.730Z,1880.00
2019-05-15T04:10:23.720Z,1924.00
2019-05-15T04:11:23.700Z,1972.00
2019-05-15T04:12:23.694Z,2012.00
2019-05-15T04:13:23.749Z,2056.00
2019-05-15T04:14:23.664Z,2096.00
2019-05-15T04:15:23.665Z,2140.00
2019-05-15T04:16:23.663Z,2184.00
2019-05-15T04:17:23.640Z,2224.00
2019-05-15T04:18:23.640Z,2264.00
2019-05-15T04:19:23.652Z,2308.00
2019-05-15T04:20:23.600Z,2344.00
2019-05-15T04:21:23.608Z,2384.00
2019-05-15T04:22:23.581Z,2420.00
2019-05-15T04:23:23.590Z,2460.00
2019-05-15T04:24:23.561Z,2496.00
2019-05-15T04:25:23.560Z,2540.00
2019-05-15T04:26:23.540Z,2576.00
2019-05-15T04:27:23.543Z,2612.00
2019-05-15T04:28:23.543Z,2648.00
2019-05-15T04:29:23.499Z,2684.00
2019-05-15T04:30:23.512Z,2716.00
2019-05-15T04:31:23.479Z,2756.00
2019-05-15T04:32:23.480Z,2792.00
2019-05-15T04:33:23.471Z,2824.00
2019-05-15T04:34:23.458Z,2860.00
2019-05-15T04:35:23.459Z,2896.00
2019-05-15T04:36:23.443Z,2924.00
2019-05-15T04:37:23.434Z,2960.00
2019-05-15T04:38:23.424Z,2996.00
2019-05-15T04:39:23.402Z,3024.00
2019-05-15T04:40:23.410Z,3056.00
2019-05-15T04:41:23.372Z,3084.00
2019-05-15T04:42:23.360Z,3116.00
2019-05-15T04:43:23.352Z,3148.00
2019-05-15T04:44:23.339Z,3176.00
2019-05-15T04:45:23.338Z,3208.00
2019-05-15T04:46:23.330Z,3236.00
2019-05-15T04:47:23.326Z,3268.00
2019-05-15T04:48:23.299Z,3292.00
2019-05-15T04:49:23.288Z,3320.00
2019-05-15T04:50:23.288Z,3352.00
2019-05-15T04:51:23.292Z,3376.00
2019-05-15T04:52:23.251Z,3404.00
2019-05-15T04:53:23.250Z,3436.00
2019-05-15T04:54:23.240Z,3460.00
2019-05-15T04:55:23.220Z,3488.00
2019-05-15T04:56:23.220Z,3516.00
2019-05-15T04:57:23.207Z,3540.00
2019-05-15T04:58:23.204Z,3568.00
2019-05-15T04:59:23.193Z,3592.00
2019-05-15T05:00:23.180Z,3624.00
2019-05-15T05:01:23.160Z,3656.00
2019-05-15T05:02:27.208Z,3680.00
2019-05-15T05:03:24.157Z,3704.00
2019-05-15T05:04:23.132Z,3728.00
2019-05-15T05:05:23.119Z,3752.00
2019-05-15T05:06:23.100Z,3776.00
2019-05-15T05:07:23.098Z,3800.00
2019-05-15T05:08:23.120Z,3824.00
2019-05-15T05:09:23.083Z,3852.00
2019-05-15T05:10:23.069Z,3876.00
2019-05-15T05:11:24.029Z,3900.00
2019-05-15T05:12:23.138Z,3924.00
2019-05-15T05:13:23.029Z,3944.00
2019-05-15T05:14:23.029Z,3976.00
2019-05-15T05:15:23.018Z,4000.00
2019-05-15T05:17:13.446Z,4040.00
2019-05-15T05:18:13.523Z,4064.00
2019-05-15T05:19:13.535Z,4080.00
2019-05-15T05:20:13.426Z,4112.00
2019-05-15T05:21:13.393Z,4136.00
2019-05-15T05:22:13.372Z,4164.00
2019-05-15T05:23:13.483Z,4192.00
2019-05-15T05:24:13.356Z,4216.00
2019-05-15T05:25:13.353Z,4264.00
2019-05-15T05:26:13.342Z,4324.00
2019-05-15T05:27:13.323Z,4388.00
2019-05-15T05:28:13.451Z,4444.00
2019-05-15T05:29:13.320Z,4492.00
2019-05-15T05:30:13.303Z,4536.00
2019-05-15T05:31:14.218Z,4568.00
2019-05-15T05:32:27.185Z,4604.00
2019-05-15T05:33:14.323Z,4636.00
2019-05-15T05:34:13.266Z,4672.00
2019-05-15T05:35:13.252Z,4704.00
2019-05-15T05:36:13.223Z,4736.00
2019-05-15T05:37:13.218Z,4752.00
2019-05-15T05:38:13.312Z,4772.00
2019-05-15T05:39:15.353Z,4796.00
2019-05-15T05:40:13.193Z,4816.00
2019-05-15T05:41:13.173Z,4844.00
2019-05-15T05:42:13.182Z,4876.00
2019-05-15T05:43:13.154Z,4908.00
2019-05-15T05:44:13.161Z,4944.00
2019-05-15T05:45:13.143Z,4984.00
2019-05-15T05:46:13.151Z,5040.00
2019-05-15T05:47:13.116Z,5092.00
2019-05-15T05:48:13.114Z,5148.00
2019-05-15T05:49:13.196Z,5212.00
2019-05-15T05:50:13.113Z,5268.00
2019-05-15T05:51:13.093Z,5340.00
2019-05-15T05:52:13.053Z,5432.00
2019-05-15T05:53:13.044Z,5516.00
2019-05-15T05:54:13.057Z,5604.00
2019-05-15T05:55:13.034Z,5732.00
2019-05-15T05:56:13.016Z,5948.00
2019-05-15T05:57:13.004Z,6180.00
2019-05-15T05:58:13.016Z,6368.00
2019-05-15T05:59:13.086Z,6560.00
2019-05-15T06:00:12.976Z,8176.00
2019-05-15T06:01:12.979Z,15476.00
2019-05-15T06:02:12.964Z,19872.00
2019-05-15T06:03:12.934Z,20800.00
2019-05-15T06:04:12.954Z,21952.00
2019-05-15T06:05:12.932Z,23008.00
2019-05-15T06:06:12.906Z,23360.00
2019-05-15T06:07:14.265Z,22720.00
2019-05-15T06:08:12.893Z,22368.00
2019-05-15T06:09:12.900Z,22784.00
2019-05-15T06:10:12.973Z,22464.00
2019-05-15T06:11:12.863Z,22720.00
2019-05-15T06:12:12.857Z,23616.00
2019-05-15T06:13:12.842Z,25600.00
2019-05-15T06:14:12.827Z,26400.00
2019-05-15T06:15:12.809Z,26400.00
2019-05-15T06:16:12.804Z,26752.00
2019-05-15T06:17:12.792Z,26432.00
2019-05-15T06:18:12.797Z,26048.00
2019-05-15T06:19:12.764Z,26880.00
2019-05-15T06:20:12.753Z,28320.00
2019-05-15T06:21:12.754Z,28608.00
2019-05-15T06:22:12.724Z,28832.00
2019-05-15T06:23:12.715Z,30240.00
2019-05-15T06:24:13.277Z,29664.00
2019-05-15T06:25:12.696Z,29600.00
2019-05-15T06:26:12.797Z,29600.00
2019-05-15T06:27:12.675Z,29088.00
2019-05-15T06:28:12.676Z,30176.00
2019-05-15T06:29:12.664Z,31584.00
2019-05-15T06:30:19.579Z,32160.00
2019-05-15T06:31:13.694Z,32896.00
2019-05-15T06:32:12.649Z,32704.00
2019-05-15T06:33:13.527Z,33024.00
2019-05-15T06:34:12.616Z,32224.00
2019-05-15T06:35:12.616Z,31680.00
2019-05-15T06:36:12.626Z,32384.00
2019-05-15T06:37:12.581Z,33280.00
2019-05-15T06:38:12.577Z,34560.00
2019-05-15T06:39:12.554Z,34400.00
2019-05-15T06:40:12.546Z,34656.00
2019-05-15T06:41:12.656Z,35744.00
2019-05-15T06:42:12.525Z,35296.00
2019-05-15T06:43:12.506Z,35424.00
2019-05-15T06:44:12.520Z,35296.00
2019-05-15T06:45:12.476Z,35712.00
2019-05-15T06:46:12.492Z,37312.00
2019-05-15T06:47:12.467Z,39424.00
2019-05-15T06:48:12.462Z,41632.00
2019-05-15T06:49:12.448Z,42144.00
2019-05-15T06:50:12.448Z,41824.00
2019-05-15T06:51:12.435Z,41472.00
2019-05-15T06:52:12.520Z,42784.00
2019-05-15T06:53:12.387Z,42752.00
2019-05-15T06:54:12.397Z,40960.00
2019-05-15T06:55:12.377Z,39616.00
2019-05-15T06:56:12.378Z,39680.00
2019-05-15T06:57:12.358Z,39488.00
2019-05-15T06:58:12.358Z,41472.00
2019-05-15T06:59:12.348Z,40896.00
2019-05-15T07:00:12.338Z,40096.00
2019-05-15T07:01:12.318Z,41792.00
2019-05-15T07:02:12.409Z,42144.00
2019-05-15T07:03:21.436Z,40768.00
2019-05-15T07:04:13.279Z,40928.00
2019-05-15T07:05:12.278Z,40608.00
2019-05-15T07:06:12.262Z,40576.00
2019-05-15T07:07:12.239Z,41056.00
2019-05-15T07:08:12.323Z,40608.00
2019-05-15T07:09:12.239Z,40992.00
2019-05-15T07:10:12.229Z,40064.00
2019-05-15T07:11:12.220Z,40128.00
2019-05-15T07:12:12.191Z,40480.00
2019-05-15T07:13:12.208Z,41280.00
2019-05-15T07:14:12.188Z,40992.00
2019-05-15T07:15:12.173Z,40960.00
2019-05-15T07:16:12.160Z,42624.00
2019-05-15T07:17:12.142Z,41440.00
2019-05-15T07:18:12.130Z,41184.00
2019-05-15T07:19:12.130Z,42880.00
2019-05-15T07:20:12.111Z,43072.00
2019-05-15T07:21:12.102Z,44192.00
2019-05-15T07:22:12.104Z,46656.00
2019-05-15T07:23:12.085Z,46912.00
2019-05-15T07:24:12.080Z,45952.00
2019-05-15T07:25:12.052Z,44992.00
2019-05-15T07:26:12.051Z,44512.00
2019-05-15T07:27:12.035Z,48704.00
2019-05-15T07:28:12.153Z,51840.00
2019-05-15T07:29:12.002Z,52128.00
2019-05-15T07:30:12.448Z,53344.00
2019-05-15T07:31:11.983Z,53888.00
2019-05-15T07:32:11.996Z,51584.00
2019-05-15T07:33:11.956Z,54176.00
2019-05-15T07:34:11.985Z,55968.00
2019-05-15T07:35:11.936Z,55360.00
2019-05-15T07:36:11.924Z,56064.00
2019-05-15T07:37:11.922Z,55328.00
2019-05-15T07:38:11.919Z,54592.00
2019-05-15T07:39:11.914Z,55008.00
2019-05-15T07:40:12.027Z,54784.00
2019-05-15T07:41:11.887Z,54176.00
2019-05-15T07:42:11.880Z,54848.00
2019-05-15T07:43:11.856Z,55008.00
2019-05-15T07:44:11.847Z,54560.00
2019-05-15T07:45:11.960Z,54464.00
2019-05-15T07:46:11.828Z,57760.00
2019-05-15T07:47:11.805Z,59584.00
2019-05-15T07:48:11.817Z,59488.00
2019-05-15T07:49:11.798Z,59392.00
2019-05-15T07:50:11.890Z,61216.00
2019-05-15T07:51:11.951Z,63552.00
2019-05-15T07:52:11.767Z,64832.00
2019-05-15T07:53:11.747Z,63168.00
2019-05-15T07:54:11.747Z,63392.00
2019-05-15T07:55:11.850Z,66592.00
2019-05-15T07:56:12.580Z,67008.00
2019-05-15T07:57:11.698Z,65568.00
2019-05-15T07:58:11.689Z,65600.00
2019-05-15T07:59:11.702Z,67744.00
2019-05-15T08:00:11.684Z,69760.00
2019-05-15T08:01:11.774Z,68928.00
2019-05-15T08:02:11.661Z,66592.00
2019-05-15T08:03:11.639Z,67648.00
2019-05-15T08:04:24.866Z,69696.00
2019-05-15T08:05:12.755Z,70752.00
2019-05-15T08:06:11.624Z,71424.00
2019-05-15T08:07:11.601Z,71616.00
2019-05-15T08:08:11.591Z,70720.00
2019-05-15T08:09:11.581Z,70720.00
2019-05-15T08:10:11.587Z,69536.00
2019-05-15T08:11:20.356Z,71072.00
2019-05-15T08:12:12.552Z,72896.00
2019-05-15T08:13:11.535Z,74560.00
2019-05-15T08:14:11.532Z,77056.00
2019-05-15T08:15:11.513Z,75680.00
2019-05-15T08:16:11.609Z,77472.00
2019-05-15T08:17:11.505Z,87392.00
2019-05-15T08:18:12.933Z,78080.00
2019-05-15T08:19:11.484Z,55968.00
2019-05-15T08:20:11.472Z,37984.00
2019-05-15T08:21:11.573Z,47616.00
2019-05-15T08:22:11.457Z,74112.00
2019-05-15T08:23:11.448Z,88672.00
2019-05-15T08:24:11.433Z,88576.00
2019-05-15T08:25:20.712Z,82560.00
2019-05-15T08:26:12.568Z,80000.00
2019-05-15T08:27:11.398Z,79392.00
2019-05-15T08:28:11.376Z,84064.00
2019-05-15T08:29:11.468Z,82080.00
2019-05-15T08:30:11.366Z,82176.00
2019-05-15T08:31:11.359Z,81760.00
2019-05-15T08:32:11.357Z,85248.00
2019-05-15T08:33:11.419Z,86528.00
2019-05-15T08:34:15.967Z,84768.00
2019-05-15T08:35:12.811Z,67456.00
2019-05-15T08:36:11.310Z,63040.00
2019-05-15T08:37:11.280Z,81216.00
2019-05-15T08:38:14.225Z,91776.00
2019-05-15T08:39:11.259Z,87840.00
2019-05-15T08:40:11.258Z,87680.00
2019-05-15T08:41:11.756Z,85536.00
2019-05-15T08:42:11.364Z,86400.00
2019-05-15T08:43:11.666Z,87520.00
2019-05-15T08:44:11.200Z,86368.00
2019-05-15T08:45:11.180Z,85856.00
2019-05-15T08:46:11.190Z,87264.00
2019-05-15T08:47:11.161Z,83392.00
2019-05-15T08:48:11.221Z,80256.00
2019-05-15T08:49:11.164Z,80576.00
2019-05-15T08:50:11.139Z,84960.00
2019-05-15T08:51:11.164Z,88480.00
2019-05-15T08:52:11.113Z,89248.00
2019-05-15T08:53:11.166Z,89536.00
2019-05-15T08:54:11.103Z,88480.00
2019-05-15T08:55:11.083Z,86816.00
2019-05-15T08:56:11.074Z,87808.00
2019-05-15T08:57:11.058Z,91712.00
2019-05-15T08:58:14.041Z,92096.00
2019-05-15T08:59:11.155Z,88672.00
2019-05-15T09:00:11.045Z,90784.00
2019-05-15T09:01:11.170Z,93824.00
2019-05-15T09:02:11.038Z,93728.00
2019-05-15T09:03:11.019Z,92416.00
2019-05-15T09:04:26.189Z,92384.00
2019-05-15T09:05:11.976Z,92704.00
2019-05-15T09:06:11.007Z,94112.00
2019-05-15T09:07:10.982Z,93632.00
2019-05-15T09:08:11.030Z,94976.00
2019-05-15T09:09:10.937Z,96032.00
2019-05-15T09:10:10.937Z,94912.00
2019-05-15T09:11:10.934Z,95104.00
2019-05-15T09:12:10.923Z,93760.00
2019-05-15T09:13:10.910Z,93568.00
2019-05-15T09:14:10.999Z,95328.00
2019-05-15T09:15:10.890Z,96256.00
2019-05-15T09:16:10.882Z,96704.00
2019-05-15T09:17:10.850Z,97984.00
2019-05-15T09:18:15.840Z,98176.00
2019-05-15T09:19:12.020Z,98048.00
2019-05-15T09:20:10.834Z,96480.00
2019-05-15T09:21:10.821Z,95840.00
2019-05-15T09:22:10.825Z,96032.00
2019-05-15T09:23:10.805Z,96320.00
2019-05-15T09:24:10.882Z,96160.00
2019-05-15T09:25:10.783Z,99680.00
2019-05-15T09:26:10.770Z,101664.00
2019-05-15T09:27:10.783Z,101984.00
2019-05-15T09:28:10.743Z,103744.00
2019-05-15T09:29:10.865Z,105696.00
2019-05-15T09:30:10.723Z,103968.00
2019-05-15T09:31:10.721Z,101568.00
2019-05-15T09:32:12.582Z,101728.00
2019-05-15T09:33:10.702Z,105888.00
2019-05-15T09:34:10.696Z,105408.00
2019-05-15T09:35:10.790Z,104256.00
2019-05-15T09:36:10.666Z,104224.00
2019-05-15T09:37:10.705Z,103744.00
2019-05-15T09:38:10.667Z,104320.00
2019-05-15T09:39:13.359Z,101056.00
2019-05-15T09:40:10.689Z,100256.00
2019-05-15T09:41:10.617Z,98720.00
2019-05-15T09:42:10.588Z,99264.00
2019-05-15T09:43:11.366Z,102464.00
2019-05-15T09:44:10.571Z,101824.00
2019-05-15T09:45:10.689Z,104320.00
2019-05-15T09:46:10.632Z,106624.00
2019-05-15T09:47:10.537Z,106816.00
2019-05-15T09:48:14.447Z,105824.00
2019-05-15T09:49:10.519Z,101088.00
2019-05-15T09:50:10.523Z,97504.00
2019-05-15T09:51:10.500Z,102656.00
2019-05-15T09:52:10.496Z,106592.00
2019-05-15T09:53:10.491Z,109184.00
2019-05-15T09:54:10.462Z,112192.00
2019-05-15T09:55:10.596Z,112384.00
2019-05-15T09:56:10.445Z,112928.00
2019-05-15T09:57:11.077Z,112192.00
2019-05-15T09:58:10.434Z,109248.00
2019-05-15T09:59:10.442Z,106912.00
2019-05-15T10:00:10.413Z,108064.00
2019-05-15T10:01:10.528Z,113248.00
2019-05-15T10:02:10.388Z,117056.00
2019-05-15T10:03:10.384Z,102752.00
2019-05-15T10:04:10.356Z,111104.00
2019-05-15T10:05:11.359Z,110784.00
2019-05-15T10:06:10.408Z,112992.00
2019-05-15T10:07:10.326Z,117376.00
2019-05-15T10:08:10.326Z,113312.00
2019-05-15T10:09:10.311Z,107712.00
2019-05-15T10:10:10.301Z,106496.00
2019-05-15T10:11:10.348Z,111424.00
2019-05-15T10:12:10.271Z,112320.00
2019-05-15T10:13:10.259Z,113536.00
2019-05-15T10:14:10.257Z,105920.00
2019-05-15T10:15:11.629Z,108832.00
2019-05-15T10:16:10.239Z,116576.00
2019-05-15T10:17:10.220Z,116896.00
2019-05-15T10:18:10.230Z,117248.00
2019-05-15T10:19:10.222Z,122656.00
2019-05-15T10:20:10.202Z,124704.00
2019-05-15T10:21:10.290Z,119424.00
2019-05-15T10:22:10.184Z,114976.00
2019-05-15T10:23:10.181Z,112128.00
2019-05-15T10:24:10.295Z,114784.00
2019-05-15T10:25:10.142Z,99360.00
2019-05-15T10:26:13.964Z,104896.00
2019-05-15T10:27:10.162Z,93664.00
2019-05-15T10:28:10.145Z,114464.00
2019-05-15T10:29:10.113Z,114400.00
2019-05-15T10:30:10.084Z,114016.00
2019-05-15T10:31:10.104Z,112672.00
2019-05-15T10:32:10.092Z,112352.00
2019-05-15T10:33:10.075Z,115456.00
2019-05-15T10:34:10.056Z,113792.00
2019-05-15T10:35:24.657Z,117984.00
2019-05-15T10:36:11.037Z,116704.00
2019-05-15T10:37:10.776Z,113152.00
2019-05-15T10:38:10.096Z,113248.00
2019-05-15T10:39:10.073Z,115648.00
2019-05-15T10:40:09.987Z,115040.00
2019-05-15T10:41:15.027Z,116256.00
2019-05-15T10:42:10.976Z,115392.00
2019-05-15T10:43:10.071Z,116000.00
2019-05-15T10:44:09.948Z,113120.00
2019-05-15T10:45:09.939Z,113984.00
2019-05-15T10:46:13.023Z,114208.00
2019-05-15T10:47:09.909Z,115136.00
2019-05-15T10:48:10.011Z,113696.00
2019-05-15T10:49:09.900Z,115168.00
2019-05-15T10:50:09.893Z,116288.00
2019-05-15T10:51:10.520Z,117952.00
2019-05-15T10:52:11.360Z,119616.00
2019-05-15T10:53:11.368Z,38592.00
2019-05-15T10:54:09.853Z,26656.00
2019-05-15T10:55:09.843Z,126528.00
2019-05-15T10:56:09.823Z,33632.00
2019-05-15T10:57:09.811Z,59776.00
2019-05-15T10:58:16.685Z,24192.00
2019-05-15T10:59:10.925Z,123488.00
2019-05-15T11:00:09.793Z,122976.00
2019-05-15T11:01:11.314Z,120768.00
2019-05-15T11:02:09.781Z,119040.00
2019-05-15T11:03:09.765Z,128896.00
2019-05-15T11:04:09.813Z,28448.00
2019-05-15T11:05:09.812Z,25248.00
2019-05-15T11:06:09.815Z,126400.00
2019-05-15T11:07:09.887Z,122944.00
2019-05-15T11:08:09.716Z,116832.00
2019-05-15T11:09:09.796Z,112768.00
2019-05-15T11:10:09.688Z,112320.00
2019-05-15T11:11:09.707Z,115552.00
2019-05-15T11:12:09.647Z,113888.00
2019-05-15T11:13:09.647Z,116256.00
2019-05-15T11:14:09.679Z,114432.00
2019-05-15T11:15:11.415Z,120640.00
2019-05-15T11:16:09.633Z,123136.00
2019-05-15T11:17:16.668Z,127936.00
2019-05-15T11:18:09.614Z,122624.00
2019-05-15T11:19:09.613Z,124512.00
2019-05-15T11:20:09.602Z,99904.00
2019-05-15T11:21:09.596Z,123328.00
2019-05-15T11:22:46.031Z,121888.00
2019-05-15T11:23:09.550Z,26944.00
2019-05-15T11:24:09.530Z,121664.00
2019-05-15T11:25:10.296Z,118560.00
2019-05-15T11:26:09.520Z,118400.00
2019-05-15T11:27:10.123Z,119968.00
2019-05-15T11:28:09.491Z,116032.00
2019-05-15T11:29:09.841Z,83008.00
2019-05-15T11:30:09.533Z,119680.00
2019-05-15T11:31:10.576Z,115488.00
2019-05-15T11:32:09.456Z,117728.00
2019-05-15T11:33:09.757Z,120576.00
2019-05-15T11:34:09.566Z,30048.00
2019-05-15T11:35:09.428Z,48544.00
2019-05-15T11:36:09.444Z,121056.00
2019-05-15T11:37:09.415Z,124704.00
2019-05-15T11:38:10.263Z,125248.00
2019-05-15T11:39:09.399Z,123872.00
2019-05-15T11:40:10.300Z,122912.00
2019-05-15T11:41:09.371Z,118624.00
2019-05-15T11:42:09.467Z,119680.00
2019-05-15T11:43:09.338Z,118144.00
2019-05-15T11:44:09.317Z,124160.00
2019-05-15T11:45:09.348Z,124864.00
2019-05-15T11:46:09.872Z,126176.00
2019-05-15T11:47:09.404Z,127264.00
2019-05-15T11:48:09.292Z,76672.00
2019-05-15T11:49:09.561Z,108928.00
2019-05-15T11:50:09.259Z,30144.00
2019-05-15T11:51:09.848Z,28864.00
2019-05-15T11:52:09.388Z,33888.00
2019-05-15T11:53:09.238Z,136096.00
2019-05-15T11:54:09.220Z,28512.00
2019-05-15T11:55:09.236Z,129952.00
2019-05-15T11:56:09.668Z,130624.00
2019-05-15T11:57:09.214Z,126048.00
2019-05-15T11:58:09.545Z,126112.00
2019-05-15T11:59:09.181Z,125984.00
2019-05-15T12:00:14.910Z,125408.00
2019-05-15T12:01:10.171Z,41408.00
2019-05-15T12:02:09.143Z,130016.00
2019-05-15T12:03:09.212Z,134432.00
2019-05-15T12:04:09.487Z,33728.00
2019-05-15T12:05:09.444Z,129856.00
2019-05-15T12:06:18.626Z,29248.00
2019-05-15T12:07:10.105Z,129792.00
2019-05-15T12:08:12.378Z,131424.00
2019-05-15T12:09:09.359Z,134944.00
2019-05-15T12:10:10.395Z,30016.00